Terminal Aerodrome Forecast
Issued by NWS Bismarck, ND

Home | Current Version | Previous Version | Text Only | Print | Product List | Glossary Off
Versions: 1 2 3 4 5 6 7 8 9 10 11 12 13 14 15 16 17 18 19 20 21 22

000
FTUS43 KBIS 221527 AAB
TAFBIS
TAF AMD
KBIS 221527Z 2215/2312 36008KT 4SM -SN BR BKN020 OVC030
      TEMPO 2215/2216 2SM -SN BR BKN006 OVC015
     FM221600 01013KT 4SM -SN BR BKN008 OVC018
     FM221800 01015KT P6SM OVC009
     FM230000 01006KT P6SM OVC015=

USA.gov is the U.S. government's official web portal to all federal, state and local government web resources and services.